createdAt,value
2022-08-03T00:00:48.936Z,4.82
2022-08-03T00:03:18.915Z,4.22
2022-08-03T00:06:03.985Z,4.15
2022-08-03T00:08:40.213Z,4.10
2022-08-03T00:11:10.509Z,3.83
2022-08-03T00:13:40.688Z,4.50
2022-08-03T00:16:10.938Z,4.43
2022-08-03T00:18:41.136Z,3.80
2022-08-03T00:21:11.515Z,4.15
2022-08-03T00:23:52.248Z,4.07
2022-08-03T00:26:23.294Z,3.90
2022-08-03T00:28:53.563Z,4.65
2022-08-03T00:31:44.999Z,4.50
2022-08-03T00:34:13.462Z,4.70
2022-08-03T00:36:43.562Z,4.28
2022-08-03T00:39:16.096Z,4.10
2022-08-03T00:41:46.142Z,4.70
2022-08-03T00:44:16.086Z,4.30
2022-08-03T00:46:46.101Z,3.92
2022-08-03T00:49:16.138Z,4.15
2022-08-03T00:51:46.653Z,4.45
2022-08-03T00:54:19.331Z,3.63
2022-08-03T00:57:00.092Z,3.80
2022-08-03T00:59:30.772Z,4.38
2022-08-03T01:02:01.546Z,4.05
2022-08-03T01:04:31.626Z,4.45
2022-08-03T01:07:10.710Z,4.40
2022-08-03T01:09:49.578Z,4.32
2022-08-03T01:12:28.152Z,5.13
2022-08-03T01:15:05.860Z,4.13
2022-08-03T01:17:41.595Z,4.38
2022-08-03T01:20:13.911Z,4.47
2022-08-03T01:23:09.008Z,4.55
2022-08-03T01:26:12.541Z,4.05
2022-08-03T01:29:00.036Z,4.45
2022-08-03T01:32:58.075Z,4.50
2022-08-03T01:34:35.266Z,4.18
2022-08-03T01:37:08.996Z,4.45
2022-08-03T01:39:40.838Z,4.00
2022-08-03T01:42:13.789Z,4.60
2022-08-03T01:44:48.953Z,4.13
2022-08-03T01:47:24.018Z,4.80
2022-08-03T01:49:56.597Z,4.93
2022-08-03T01:52:27.991Z,4.50
2022-08-03T01:54:58.569Z,4.18
2022-08-03T01:57:32.165Z,4.78
2022-08-03T02:00:03.752Z,5.15
2022-08-03T02:05:17.693Z,6.10
2022-08-03T02:07:49.976Z,5.45
2022-08-03T02:10:34.559Z,5.30
2022-08-03T02:13:08.298Z,7.15
2022-08-03T02:15:39.945Z,7.15
2022-08-03T02:18:13.946Z,6.80
2022-08-03T02:20:46.108Z,5.15
2022-08-03T02:23:18.604Z,5.28
2022-08-03T02:25:51.359Z,5.78
2022-08-03T02:28:23.858Z,6.13
2022-08-03T02:30:57.844Z,6.60
2022-08-03T02:33:35.841Z,6.25
2022-08-03T02:36:07.835Z,5.95
2022-08-03T02:38:42.005Z,5.55
2022-08-03T02:41:19.610Z,5.32
2022-08-03T02:44:05.427Z,5.50
2022-08-03T02:46:40.534Z,5.20
2022-08-03T02:49:40.530Z,5.47
2022-08-03T02:52:06.955Z,6.40
2022-08-03T02:54:44.495Z,5.13
2022-08-03T02:57:16.668Z,6.57
2022-08-03T02:59:47.721Z,5.78
2022-08-03T03:02:19.703Z,4.82
2022-08-03T03:05:50.946Z,4.80
2022-08-03T03:07:51.382Z,5.20
2022-08-03T03:10:23.558Z,5.07
2022-08-03T03:12:55.455Z,4.93
2022-08-03T03:15:26.522Z,5.70
2022-08-03T03:17:57.363Z,5.95
2022-08-03T03:20:32.926Z,5.88
2022-08-03T03:23:04.516Z,5.95
2022-08-03T03:25:36.129Z,5.80
2022-08-03T03:28:06.824Z,5.50
2022-08-03T03:30:37.156Z,4.95
2022-08-03T03:33:07.628Z,5.68
2022-08-03T03:35:41.399Z,5.38
2022-08-03T03:38:12.386Z,6.20
2022-08-03T03:40:42.698Z,4.82
2022-08-03T03:43:14.040Z,4.80
2022-08-03T03:45:44.849Z,3.78
2022-08-03T03:48:14.953Z,4.65
2022-08-03T03:50:48.210Z,4.60
2022-08-03T03:53:18.211Z,4.43
2022-08-03T03:56:01.509Z,4.78
2022-08-03T03:58:33.962Z,4.65
2022-08-03T04:01:04.291Z,4.70
2022-08-03T04:03:34.279Z,4.70
2022-08-03T04:06:19.408Z,4.78
2022-08-03T04:09:01.841Z,5.50
2022-08-03T04:11:36.734Z,5.82
2022-08-03T04:14:10.988Z,5.18
2022-08-03T04:16:44.343Z,4.57
2022-08-03T04:19:22.971Z,4.75
2022-08-03T04:22:00.558Z,4.60
2022-08-03T04:24:36.737Z,6.57
2022-08-03T04:27:10.165Z,5.72
2022-08-03T04:29:48.512Z,4.65
2022-08-03T04:32:20.410Z,5.03
2022-08-03T04:34:50.610Z,4.63
2022-08-03T04:37:33.092Z,4.82
2022-08-03T04:40:05.827Z,4.72
2022-08-03T04:42:37.310Z,4.80
2022-08-03T04:45:09.407Z,4.65
2022-08-03T04:47:40.911Z,5.18
2022-08-03T04:50:15.029Z,4.43
2022-08-03T04:52:49.687Z,5.03
2022-08-03T04:55:29.303Z,5.70
2022-08-03T04:57:59.666Z,6.10
2022-08-03T05:00:30.556Z,5.68
2022-08-03T05:03:00.478Z,5.75
2022-08-03T05:05:50.137Z,5.78
2022-08-03T05:08:28.018Z,5.90
2022-08-03T05:10:59.319Z,5.40
2022-08-03T05:13:29.657Z,5.30
2022-08-03T05:18:43.713Z,4.90
2022-08-03T05:21:16.335Z,5.13
2022-08-03T05:23:48.985Z,5.22
2022-08-03T05:26:19.013Z,4.75
2022-08-03T05:28:50.704Z,4.72
2022-08-03T05:31:21.374Z,4.80
2022-08-03T05:33:51.693Z,4.47
2022-08-03T05:36:21.671Z,4.88
2022-08-03T05:38:54.212Z,5.05
2022-08-03T05:41:37.259Z,4.80
2022-08-03T05:44:07.907Z,5.25
2022-08-03T05:46:38.101Z,4.78
2022-08-03T05:49:08.117Z,4.60
2022-08-03T05:51:38.168Z,4.80
2022-08-03T05:54:10.694Z,4.70
2022-08-03T05:56:41.130Z,4.65
2022-08-03T05:59:37.055Z,4.60
2022-08-03T06:02:01.891Z,4.35
2022-08-03T06:04:31.840Z,4.25
2022-08-03T06:07:01.782Z,4.25
2022-08-03T06:10:34.915Z,4.07
2022-08-03T06:12:24.524Z,4.57
2022-08-03T06:14:54.461Z,4.22
2022-08-03T06:17:24.412Z,3.92
2022-08-03T06:19:56.843Z,3.50
2022-08-03T06:22:26.876Z,3.95
2022-08-03T06:25:04.115Z,4.00
2022-08-03T06:27:37.292Z,3.75
2022-08-03T06:30:08.757Z,4.00
2022-08-03T06:32:40.662Z,4.60
2022-08-03T06:35:12.496Z,3.97
2022-08-03T06:37:47.182Z,3.63
2022-08-03T06:40:21.751Z,3.55
2022-08-03T06:42:54.480Z,3.78
2022-08-03T06:45:24.548Z,3.50
2022-08-03T06:48:03.763Z,3.47
2022-08-03T06:50:33.842Z,4.10
2022-08-03T06:53:04.402Z,3.90
2022-08-03T06:55:42.274Z,4.13
2022-08-03T06:58:12.566Z,3.72
2022-08-03T07:00:42.530Z,4.40
2022-08-03T07:03:12.522Z,3.35
2022-08-03T07:05:42.856Z,3.90
2022-08-03T07:08:12.916Z,3.13
2022-08-03T07:10:45.530Z,3.05
2022-08-03T07:13:15.662Z,3.70
2022-08-03T07:15:55.703Z,3.45
2022-08-03T07:18:29.456Z,3.22
2022-08-03T07:21:00.021Z,3.75
2022-08-03T07:23:29.991Z,3.67
2022-08-03T07:26:02.577Z,3.50
2022-08-03T07:28:32.835Z,3.00
2022-08-03T07:31:03.002Z,2.80
2022-08-03T07:33:32.986Z,2.80
2022-08-03T07:36:02.923Z,2.90
2022-08-03T07:38:32.907Z,2.78
2022-08-03T07:41:05.686Z,3.25
2022-08-03T07:43:35.731Z,2.78
2022-08-03T07:46:05.704Z,3.08
2022-08-03T07:48:35.684Z,2.70
2022-08-03T07:51:06.112Z,2.65
2022-08-03T07:53:37.826Z,2.72
2022-08-03T07:56:20.007Z,2.47
2022-08-03T07:58:49.958Z,2.95
2022-08-03T08:01:20.027Z,2.20
2022-08-03T08:03:53.441Z,2.22
2022-08-03T08:06:24.830Z,1.98
2022-08-03T08:08:59.682Z,2.30
2022-08-03T08:11:34.804Z,2.33
2022-08-03T08:14:08.164Z,2.63
2022-08-03T08:16:39.708Z,2.40
2022-08-03T08:19:09.675Z,2.30
2022-08-03T08:21:53.957Z,2.08
2022-08-03T08:24:34.075Z,1.88
2022-08-03T08:27:08.882Z,2.30
2022-08-03T08:29:38.765Z,2.20
2022-08-03T08:32:23.111Z,2.40
2022-08-03T08:34:53.374Z,2.00
2022-08-03T08:37:23.336Z,2.00
2022-08-03T08:39:53.283Z,2.20
2022-08-03T08:42:25.941Z,1.83
2022-08-03T08:44:56.418Z,2.00
2022-08-03T08:47:28.640Z,5.00
2022-08-03T08:50:10.075Z,2.25
2022-08-03T08:52:43.987Z,2.00
2022-08-03T08:55:17.337Z,2.00
2022-08-03T08:57:52.536Z,2.60
2022-08-03T09:00:22.589Z,2.30
2022-08-03T09:02:53.134Z,2.30
2022-08-03T09:05:41.359Z,2.10
2022-08-03T09:08:13.652Z,2.17
2022-08-03T09:10:43.649Z,2.17
2022-08-03T09:13:16.441Z,2.17
2022-08-03T09:15:51.293Z,2.00
2022-08-03T09:18:33.441Z,1.95
2022-08-03T09:21:33.579Z,2.00
2022-08-03T09:24:07.256Z,1.90
2022-08-03T09:26:41.188Z,1.90
2022-08-03T09:29:15.427Z,2.00
2022-08-03T09:31:47.951Z,1.90
2022-08-03T09:34:20.494Z,2.10
2022-08-03T09:36:54.426Z,2.05
2022-08-03T09:39:41.541Z,1.90
2022-08-03T09:42:14.497Z,2.00
2022-08-03T09:44:49.698Z,2.33
2022-08-03T09:47:30.807Z,2.25
2022-08-03T09:50:02.437Z,1.92
2022-08-03T09:52:49.356Z,1.60
2022-08-03T09:56:35.081Z,1.80
2022-08-03T09:58:14.505Z,2.03
2022-08-03T10:01:04.096Z,1.90
2022-08-03T10:04:03.403Z,2.00
2022-08-03T10:06:28.941Z,1.70
2022-08-03T10:09:09.496Z,1.98
2022-08-03T10:11:41.970Z,1.60
2022-08-03T10:14:19.076Z,2.30
2022-08-03T10:16:52.775Z,1.90
2022-08-03T10:19:22.776Z,1.65
2022-08-03T10:21:58.031Z,1.63
2022-08-03T10:24:29.969Z,1.58
2022-08-03T10:27:08.648Z,1.63
2022-08-03T10:29:41.703Z,1.70
2022-08-03T10:32:21.050Z,1.55
2022-08-03T10:35:00.282Z,1.58
2022-08-03T10:37:37.368Z,1.80
2022-08-03T10:40:10.090Z,1.95
2022-08-03T10:42:40.514Z,1.75
2022-08-03T10:45:16.590Z,1.98
2022-08-03T10:47:51.045Z,2.15
2022-08-03T10:50:21.812Z,1.90
2022-08-03T10:53:02.069Z,1.90
2022-08-03T10:55:48.181Z,1.80
2022-08-03T10:58:30.685Z,2.00
2022-08-03T11:01:01.055Z,1.98
2022-08-03T11:03:33.847Z,1.95
2022-08-03T11:06:19.858Z,2.08
2022-08-03T11:08:50.537Z,2.05
2022-08-03T11:11:31.384Z,2.20
2022-08-03T11:14:04.681Z,2.00
2022-08-03T11:16:37.960Z,1.83
2022-08-03T11:19:13.382Z,1.75
2022-08-03T11:22:01.144Z,2.03
2022-08-03T11:25:01.402Z,1.92
2022-08-03T11:27:34.147Z,2.00
2022-08-03T11:30:08.176Z,1.98
2022-08-03T11:33:03.417Z,1.60
2022-08-03T11:35:43.887Z,1.77
2022-08-03T11:38:14.962Z,1.70
2022-08-03T11:40:47.599Z,1.70
2022-08-03T11:43:48.223Z,1.80
2022-08-03T11:46:29.798Z,1.50
2022-08-03T11:49:10.906Z,1.70
2022-08-03T11:51:43.566Z,1.98
2022-08-03T11:54:13.588Z,1.73
2022-08-03T11:56:48.760Z,2.05
2022-08-03T11:59:22.234Z,1.70
2022-08-03T12:01:52.831Z,1.70
2022-08-03T12:04:22.868Z,1.80
2022-08-03T12:07:04.740Z,1.77
2022-08-03T12:09:36.356Z,1.80
2022-08-03T12:12:06.997Z,1.48
2022-08-03T12:14:50.963Z,1.80
2022-08-03T12:17:22.379Z,1.60
2022-08-03T12:19:52.746Z,1.70
2022-08-03T12:22:37.461Z,1.73
2022-08-03T12:25:08.134Z,1.80
2022-08-03T12:27:40.338Z,1.83
2022-08-03T12:30:12.297Z,1.60
2022-08-03T12:32:42.266Z,1.63
2022-08-03T12:35:13.246Z,2.00
2022-08-03T12:37:51.335Z,1.83
2022-08-03T12:42:58.689Z,1.50
2022-08-03T12:45:32.128Z,1.65
2022-08-03T12:48:04.029Z,2.30
2022-08-03T12:50:35.654Z,2.35
2022-08-03T12:53:10.075Z,1.50
2022-08-03T12:56:04.335Z,1.80
2022-08-03T12:58:36.560Z,1.80
2022-08-03T13:01:09.720Z,1.52
2022-08-03T13:03:45.754Z,1.80
2022-08-03T13:06:22.157Z,1.50
2022-08-03T13:09:05.588Z,1.80
2022-08-03T13:11:57.807Z,1.40
2022-08-03T13:14:26.061Z,1.55
2022-08-03T13:16:55.966Z,1.85
2022-08-03T13:19:25.912Z,1.60
2022-08-03T13:22:04.403Z,1.80
2022-08-03T13:24:37.566Z,1.70
2022-08-03T13:28:02.664Z,1.50
2022-08-03T13:29:58.271Z,2.10
2022-08-03T13:32:28.299Z,1.73
2022-08-03T13:34:58.219Z,1.80
2022-08-03T13:37:28.309Z,2.13
2022-08-03T13:40:02.754Z,4.25
2022-08-03T13:42:34.911Z,1.85
2022-08-03T13:45:05.575Z,1.48
2022-08-03T13:47:35.516Z,1.50
2022-08-03T13:50:05.507Z,1.65
2022-08-03T13:52:36.676Z,1.80
2022-08-03T13:55:11.006Z,1.58
2022-08-03T13:58:12.000Z,1.80
2022-08-03T14:00:31.144Z,1.35
2022-08-03T14:03:17.387Z,1.65
2022-08-03T14:05:48.371Z,2.00
2022-08-03T14:08:18.421Z,1.77
2022-08-03T14:10:50.911Z,1.75
2022-08-03T14:13:20.851Z,1.58
2022-08-03T14:15:51.978Z,1.75
2022-08-03T14:18:28.384Z,1.70
2022-08-03T14:21:07.030Z,1.70
2022-08-03T14:23:38.571Z,1.80
2022-08-03T14:26:12.224Z,1.77
2022-08-03T14:28:42.113Z,1.60
2022-08-03T14:32:08.934Z,1.70
2022-08-03T14:34:01.869Z,1.88
2022-08-03T14:36:31.769Z,1.70
2022-08-03T14:39:01.851Z,1.92
2022-08-03T14:41:34.487Z,1.77
2022-08-03T14:44:04.397Z,1.50
2022-08-03T14:46:34.703Z,1.65
2022-08-03T14:50:37.851Z,1.60
2022-08-03T14:51:55.373Z,1.50
2022-08-03T14:54:26.055Z,1.80
2022-08-03T14:56:59.050Z,1.83
2022-08-03T14:59:29.172Z,1.83
2022-08-03T15:02:23.745Z,1.60
2022-08-03T15:04:54.458Z,1.80
2022-08-03T15:07:24.477Z,2.10
2022-08-03T15:09:54.430Z,1.95
2022-08-03T15:12:26.986Z,2.00
2022-08-03T15:14:56.911Z,1.58
2022-08-03T15:17:26.905Z,1.60
2022-08-03T15:20:03.404Z,1.90
2022-08-03T15:22:47.018Z,1.60
2022-08-03T15:26:03.923Z,3.92
2022-08-03T15:28:09.673Z,1.70
2022-08-03T15:30:39.757Z,1.85
2022-08-03T15:33:09.902Z,1.70
2022-08-03T15:35:39.835Z,1.40
2022-08-03T15:38:09.918Z,1.83
2022-08-03T15:40:40.014Z,1.80
2022-08-03T15:43:12.579Z,1.45
2022-08-03T15:45:43.080Z,1.95
2022-08-03T15:48:12.985Z,1.70
2022-08-03T15:50:43.929Z,1.80
2022-08-03T15:53:13.883Z,1.48
2022-08-03T15:55:43.938Z,1.88
2022-08-03T15:59:10.002Z,2.00
2022-08-03T16:01:08.109Z,1.83
2022-08-03T16:03:38.563Z,2.03
2022-08-03T16:06:10.477Z,1.70
2022-08-03T16:08:40.407Z,1.95
2022-08-03T16:11:10.444Z,1.60
2022-08-03T16:14:04.792Z,2.00
2022-08-03T16:16:32.947Z,2.17
2022-08-03T16:19:05.570Z,2.00
2022-08-03T16:21:40.316Z,2.65
2022-08-03T16:24:20.001Z,1.80
2022-08-03T16:26:57.950Z,1.70
2022-08-03T16:29:33.137Z,1.70
2022-08-03T16:32:09.384Z,1.42
2022-08-03T16:34:40.337Z,1.70
2022-08-03T16:37:36.515Z,1.70
2022-08-03T16:40:01.039Z,1.60
2022-08-03T16:42:30.960Z,1.52
2022-08-03T16:45:03.508Z,1.88
2022-08-03T16:47:33.442Z,1.90
2022-08-03T16:50:08.978Z,2.00
2022-08-03T16:52:42.974Z,1.70
2022-08-03T16:55:18.416Z,1.83
2022-08-03T16:58:09.150Z,1.67
2022-08-03T17:00:46.418Z,1.88
2022-08-03T17:03:20.403Z,1.77
2022-08-03T17:05:52.321Z,1.75
2022-08-03T17:08:26.857Z,1.45
2022-08-03T17:10:58.882Z,1.80
2022-08-03T17:13:39.989Z,1.80
2022-08-03T17:16:15.325Z,2.20
2022-08-03T17:18:54.222Z,1.80
2022-08-03T17:21:29.373Z,1.83
2022-08-03T17:24:12.371Z,1.85
2022-08-03T17:26:45.773Z,1.70
2022-08-03T17:29:23.189Z,2.03
2022-08-03T17:31:58.102Z,2.20
2022-08-03T17:34:28.074Z,1.80
2022-08-03T17:37:04.200Z,2.35
2022-08-03T17:39:57.591Z,2.22
2022-08-03T17:42:30.720Z,1.90
2022-08-03T17:45:06.734Z,1.90
2022-08-03T17:47:41.800Z,2.28
2022-08-03T17:50:24.210Z,2.30
2022-08-03T17:53:06.699Z,2.10
2022-08-03T17:55:56.383Z,2.00
2022-08-03T17:58:41.610Z,2.35
2022-08-03T18:02:04.278Z,2.47
2022-08-03T18:04:30.175Z,2.70
2022-08-03T18:07:11.389Z,2.95
2022-08-03T18:10:03.252Z,2.40
2022-08-03T18:12:43.394Z,2.72
2022-08-03T18:15:22.095Z,2.92
2022-08-03T18:18:02.100Z,3.00
2022-08-03T18:20:41.755Z,3.40
2022-08-03T18:23:25.089Z,2.90
2022-08-03T18:26:06.904Z,2.42
2022-08-03T18:28:38.540Z,2.30
2022-08-03T18:31:09.565Z,2.33
2022-08-03T18:34:18.951Z,2.30
2022-08-03T18:36:37.752Z,2.55
2022-08-03T18:39:08.930Z,2.83
2022-08-03T18:41:46.325Z,2.97
2022-08-03T18:44:37.426Z,3.30
2022-08-03T18:47:19.713Z,3.05
2022-08-03T18:50:00.434Z,2.90
2022-08-03T18:52:39.114Z,2.80
2022-08-03T18:55:33.776Z,2.80
2022-08-03T18:58:17.804Z,3.10
2022-08-03T19:00:56.793Z,4.53
2022-08-03T19:03:42.705Z,4.82
2022-08-03T19:06:23.991Z,6.63
2022-08-03T19:09:05.393Z,6.00
2022-08-03T19:12:14.151Z,5.60
2022-08-03T19:14:42.522Z,6.72
2022-08-03T19:17:14.317Z,4.80
2022-08-03T19:19:54.127Z,4.97
2022-08-03T19:22:27.316Z,4.85
2022-08-03T19:25:03.254Z,4.75
2022-08-03T19:27:34.514Z,3.75
2022-08-03T19:30:14.241Z,4.35
2022-08-03T19:32:53.324Z,5.03
2022-08-03T19:35:51.428Z,5.70
2022-08-03T19:38:13.662Z,4.50
2022-08-03T19:40:51.178Z,4.10
2022-08-03T19:43:33.133Z,4.15
2022-08-03T19:46:19.968Z,4.20
2022-08-03T19:48:58.432Z,4.43
2022-08-03T19:52:00.654Z,4.07
2022-08-03T19:54:29.831Z,5.03
2022-08-03T19:57:06.222Z,5.03
2022-08-03T19:59:49.688Z,5.40
2022-08-03T20:02:22.159Z,5.13
2022-08-03T20:04:57.849Z,4.38
2022-08-03T20:07:32.918Z,4.47
2022-08-03T20:10:04.437Z,5.53
2022-08-03T20:12:39.345Z,4.80
2022-08-03T20:15:12.169Z,4.13
2022-08-03T20:17:56.642Z,3.60
2022-08-03T20:20:30.689Z,4.60
2022-08-03T20:23:02.350Z,4.53
2022-08-03T20:25:48.847Z,5.45
2022-08-03T20:28:35.697Z,4.93
2022-08-03T20:31:25.194Z,5.90
2022-08-03T20:34:02.133Z,6.05
2022-08-03T20:36:32.130Z,5.93
2022-08-03T20:39:02.361Z,5.63
2022-08-03T20:41:38.086Z,5.68
2022-08-03T20:44:10.715Z,6.35
2022-08-03T20:46:53.153Z,6.97
2022-08-03T20:49:26.723Z,6.32
2022-08-03T20:51:56.775Z,7.03
2022-08-03T20:54:30.703Z,6.75
2022-08-03T20:57:04.286Z,5.78
2022-08-03T20:59:50.520Z,5.95
2022-08-03T21:02:29.926Z,6.85
2022-08-03T21:05:03.319Z,6.20
2022-08-03T21:08:03.991Z,5.47
2022-08-03T21:10:37.786Z,5.60
2022-08-03T21:16:11.531Z,4.30
2022-08-03T21:18:48.578Z,5.00
2022-08-03T21:21:20.485Z,4.53
2022-08-03T21:23:53.394Z,4.70
2022-08-03T21:26:25.704Z,4.68
2022-08-03T21:28:58.029Z,4.70
2022-08-03T21:31:30.658Z,4.30
2022-08-03T21:34:03.075Z,4.65
2022-08-03T21:36:35.714Z,3.95
2022-08-03T21:39:09.507Z,4.25
2022-08-03T21:41:42.425Z,3.90
2022-08-03T21:44:12.529Z,3.85
2022-08-03T21:46:46.988Z,4.57
2022-08-03T21:50:05.806Z,3.92
2022-08-03T21:52:09.711Z,4.07
2022-08-03T21:54:41.136Z,4.38
2022-08-03T21:57:20.835Z,4.35
2022-08-03T21:59:56.622Z,4.63
2022-08-03T22:02:33.413Z,4.00
2022-08-03T22:05:05.043Z,4.28
2022-08-03T22:07:36.666Z,4.50
2022-08-03T22:10:09.318Z,4.40
2022-08-03T22:12:39.592Z,4.15
2022-08-03T22:15:12.351Z,4.20
2022-08-03T22:17:54.528Z,3.67
2022-08-03T22:20:26.764Z,4.07
2022-08-03T22:22:58.341Z,4.53
2022-08-03T22:25:31.628Z,4.25
2022-08-03T22:28:03.576Z,4.75
2022-08-03T22:30:34.416Z,4.15
2022-08-03T22:33:11.134Z,4.35
2022-08-03T22:35:48.082Z,4.50
2022-08-03T22:38:20.059Z,4.13
2022-08-03T22:40:51.589Z,4.70
2022-08-03T22:43:25.979Z,4.20
2022-08-03T22:46:09.220Z,5.15
2022-08-03T22:48:43.962Z,4.75
2022-08-03T22:51:13.972Z,4.65
2022-08-03T22:53:44.173Z,5.35
2022-08-03T22:56:14.682Z,5.22
2022-08-03T22:58:44.873Z,5.43
2022-08-03T23:01:19.647Z,5.20
2022-08-03T23:04:02.366Z,5.32
2022-08-03T23:06:37.445Z,4.70
2022-08-03T23:09:10.264Z,4.63
2022-08-03T23:11:45.784Z,4.63
2022-08-03T23:14:17.904Z,4.95
2022-08-03T23:16:50.873Z,4.72
2022-08-03T23:19:30.238Z,4.50
2022-08-03T23:22:06.043Z,4.30
2022-08-03T23:24:56.322Z,4.28
2022-08-03T23:27:27.049Z,4.00
2022-08-03T23:30:00.378Z,4.53
2022-08-03T23:32:31.567Z,4.85
2022-08-03T23:35:17.880Z,4.65
2022-08-03T23:38:04.297Z,4.20
2022-08-03T23:40:40.035Z,4.72
2022-08-03T23:43:16.699Z,4.72
2022-08-03T23:46:03.863Z,4.55
2022-08-03T23:48:33.947Z,4.57
2022-08-03T23:51:12.647Z,5.18
2022-08-03T23:53:47.334Z,4.63
2022-08-03T23:56:34.076Z,5.00
2022-08-03T23:59:14.573Z,5.25
